Pracuuba, Brazil
Current Conditions -  °F | °C
As of 12:00 AM on Saturday 22 Nov 2014 (Local Time) from SBMQ Reporting Station
Few Clouds Few Clouds  
Wind Chill: 81°   Ceiling: Unl
Heat Index: 85°   Visibility: 6mi
Dew Point: 73°   Wind: 6mph
Humidity: 79%   Direction: 40°NE
Pressure: 29.85"   Gusts: NA
Location:  1.74°N, 50.79°W
Report Text: SBMQ 220300Z 04005KT 9999 FEW013 27/23 Q1011
Loading
Personal Weather Stations






























Interactive Weather Map New forecast layout! Learn more

10-Day Weather Forecast

Advertisements
Track Severe Weather on mobile